Time;durP1;ratioP1;P1;durP2;ratioP2;P2;SDS_P1;SDS_P2;PMS_P1;PMS_P2;Temp;Humidity;BMP_temperature;BMP_pressure;BME280_temperature;BME280_humidity;BME280_pressure;Samples;Min_cycle;Max_cycle;Signal;HPM_P1;HPM_P2
2021/12/30 00:02:00;;;;;;;;;;;7.00;99.90;;;;;;5093707;28;19924;-52
2021/12/30 00:04:27;;;;;;;;;;;7.10;99.90;;;;;;5094174;28;20389;-51
2021/12/30 00:06:54;;;;;;;;;;;7.10;99.90;;;;;;5093741;28;19924;-52
2021/12/30 00:09:21;;;;;;;;;;;7.20;99.90;;;;;;5093156;28;19925;-52
2021/12/30 00:11:49;;;;;;;;;;;7.20;99.90;;;;;;5093421;28;19927;-51
2021/12/30 00:14:16;;;;;;;;;;;7.10;99.90;;;;;;5094188;28;19924;-51
2021/12/30 00:16:43;;;;;;;;;;;7.30;99.90;;;;;;5093597;28;19950;-51
2021/12/30 00:19:12;;;;;;;;;;;7.30;99.90;;;;;;5093578;28;19924;-51
2021/12/30 00:21:38;;;;;;;;;;;7.40;99.90;;;;;;5093397;28;19928;-51
2021/12/30 00:24:06;;;;;;;;;;;7.30;99.90;;;;;;5092076;28;19931;-52
2021/12/30 00:26:32;;;;;;;;;;;7.20;99.90;;;;;;5090632;28;19927;-51
2021/12/30 00:29:00;;;;;;;;;;;7.30;99.90;;;;;;5093103;28;19931;-52
2021/12/30 00:31:27;;;;;;;;;;;7.30;99.90;;;;;;5093593;28;19932;-51
2021/12/30 00:33:54;;;;;;;;;;;7.30;99.90;;;;;;5093004;28;19928;-51
2021/12/30 00:36:21;;;;;;;;;;;7.30;99.90;;;;;;5093051;28;19928;-51
2021/12/30 00:38:48;;;;;;;;;;;7.20;99.90;;;;;;5093419;28;19924;-52
2021/12/30 00:41:14;;;;;;;;;;;7.20;99.90;;;;;;5089127;28;20013;-52
2021/12/30 00:43:41;;;;;;;;;;;7.20;99.90;;;;;;5093850;28;19977;-52
2021/12/30 00:46:10;;;;;;;;;;;7.30;99.90;;;;;;5093746;28;20434;-52
2021/12/30 00:48:36;;;;;;;;;;;7.30;99.90;;;;;;5092407;28;20399;-52
2021/12/30 00:51:04;;;;;;;;;;;7.30;99.90;;;;;;5093374;28;19931;-51
2021/12/30 00:53:31;;;;;;;;;;;7.30;99.90;;;;;;5093604;28;19928;-51
2021/12/30 00:55:57;;;;;;;;;;;7.30;99.90;;;;;;5093524;28;19935;-52
2021/12/30 00:58:24;;;;;;;;;;;7.30;99.90;;;;;;5093372;28;19924;-51
2021/12/30 01:00:52;;;;;;;;;;;7.30;99.90;;;;;;5093242;28;19993;-52
2021/12/30 01:03:20;;;;;;;;;;;7.30;99.90;;;;;;5092065;28;19931;-52
2021/12/30 01:05:47;;;;;;;;;;;7.30;99.90;;;;;;5092864;28;19978;-51
2021/12/30 01:08:14;;;;;;;;;;;7.40;99.90;;;;;;5093032;28;19928;-51
2021/12/30 01:10:41;;;;;;;;;;;7.40;99.90;;;;;;5092691;28;19978;-52
2021/12/30 01:13:10;;;;;;;;;;;7.50;99.90;;;;;;5093067;28;19924;-52
2021/12/30 01:15:48;;;;;;;;;;;7.50;99.90;;;;;;5093204;28;19931;-52
2021/12/30 01:18:28;;;;;;;;;;;7.50;99.90;;;;;;5092563;28;19931;-51
2021/12/30 01:20:57;;;;;;;;;;;7.60;99.90;;;;;;5092451;28;19932;-52
2021/12/30 01:23:24;;;;;;;;;;;7.70;99.90;;;;;;5092493;28;20384;-52
2021/12/30 01:25:51;;;;;;;;;;;7.70;99.90;;;;;;5079807;28;19924;-52
2021/12/30 01:28:18;;;;;;;;;;;7.60;99.90;;;;;;5090256;28;20385;-51
2021/12/30 01:30:46;;;;;;;;;;;7.70;99.90;;;;;;5092740;28;20060;-51
2021/12/30 01:33:12;;;;;;;;;;;7.70;99.90;;;;;;5072877;28;19979;-52
2021/12/30 01:35:39;;;;;;;;;;;7.70;99.90;;;;;;5085776;28;19928;-51
2021/12/30 01:38:11;;;;;;;;;;;7.60;99.90;;;;;;5092895;28;20277;-52
2021/12/30 01:40:39;;;;;;;;;;;7.60;99.90;;;;;;5091736;28;20396;-52
2021/12/30 01:43:07;;;;;;;;;;;7.60;99.90;;;;;;5092560;28;19924;-52
2021/12/30 01:45:34;;;;;;;;;;;7.60;99.90;;;;;;5092325;28;20356;-51
2021/12/30 01:48:01;;;;;;;;;;;7.60;99.90;;;;;;5092398;28;20389;-52
2021/12/30 01:50:27;;;;;;;;;;;7.60;99.90;;;;;;5091745;28;19928;-52
2021/12/30 01:52:54;;;;;;;;;;;7.50;99.90;;;;;;5092669;28;20286;-52
2021/12/30 01:55:23;;;;;;;;;;;7.60;99.90;;;;;;5091867;28;19978;-52
2021/12/30 01:57:50;;;;;;;;;;;7.60;99.90;;;;;;5092360;28;19977;-52
2021/12/30 02:00:19;;;;;;;;;;;7.70;99.90;;;;;;5090889;28;19924;-52
2021/12/30 02:02:45;;;;;;;;;;;7.60;99.90;;;;;;5086211;28;19970;-52
2021/12/30 02:05:12;;;;;;;;;;;7.60;99.90;;;;;;5088020;28;19985;-52
2021/12/30 02:07:39;;;;;;;;;;;7.70;99.90;;;;;;5092363;28;19924;-52
2021/12/30 02:10:06;;;;;;;;;;;7.70;99.90;;;;;;5091763;28;19928;-52
2021/12/30 02:12:35;;;;;;;;;;;7.70;99.90;;;;;;5092072;28;19927;-52
2021/12/30 02:15:03;;;;;;;;;;;7.70;99.90;;;;;;5091844;28;19973;-51
2021/12/30 02:17:29;;;;;;;;;;;7.70;99.90;;;;;;5092147;28;19924;-51
2021/12/30 02:19:58;;;;;;;;;;;7.80;99.90;;;;;;5091580;28;19924;-52
2021/12/30 02:22:25;;;;;;;;;;;7.70;99.90;;;;;;5092134;28;19970;-51
2021/12/30 02:24:52;;;;;;;;;;;7.70;99.90;;;;;;5091897;28;19993;-52
2021/12/30 02:27:19;;;;;;;;;;;7.60;99.90;;;;;;5092390;28;19951;-52
2021/12/30 02:29:46;;;;;;;;;;;7.70;99.90;;;;;;5091869;28;20457;-52
2021/12/30 02:32:13;;;;;;;;;;;7.70;99.90;;;;;;5091888;28;20354;-52
2021/12/30 02:34:40;;;;;;;;;;;7.70;99.90;;;;;;5091932;28;19999;-52
2021/12/30 02:37:09;;;;;;;;;;;7.70;99.90;;;;;;5092229;28;19924;-52
2021/12/30 02:39:36;;;;;;;;;;;7.80;99.90;;;;;;5091045;28;19924;-52
2021/12/30 02:42:03;;;;;;;;;;;7.80;99.90;;;;;;5091474;28;19928;-51
2021/12/30 02:44:30;;;;;;;;;;;7.80;99.90;;;;;;5091695;28;19924;-52
2021/12/30 02:46:57;;;;;;;;;;;7.90;99.90;;;;;;5092534;28;19924;-52
2021/12/30 02:49:23;;;;;;;;;;;8.00;99.90;;;;;;5094455;28;19970;-52
2021/12/30 02:51:50;;;;;;;;;;;8.00;99.90;;;;;;5095834;28;19950;-52
2021/12/30 02:54:19;;;;;;;;;;;8.00;99.90;;;;;;5094911;28;19924;-52
2021/12/30 02:56:47;;;;;;;;;;;8.00;99.90;;;;;;5095599;28;19928;-51
2021/12/30 02:59:14;;;;;;;;;;;7.90;99.90;;;;;;5095006;28;19970;-52
2021/12/30 03:01:41;;;;;;;;;;;7.80;99.90;;;;;;5095028;28;19924;-52
2021/12/30 03:04:08;;;;;;;;;;;7.80;99.90;;;;;;5083843;28;19924;-52
2021/12/30 03:06:35;;;;;;;;;;;7.80;99.90;;;;;;5095192;28;19987;-52
2021/12/30 03:09:02;;;;;;;;;;;7.80;99.90;;;;;;5094272;28;19924;-52
2021/12/30 03:11:30;;;;;;;;;;;7.70;99.90;;;;;;5095134;28;19932;-52
2021/12/30 03:13:58;;;;;;;;;;;7.60;99.90;;;;;;5094954;28;19924;-52
2021/12/30 03:16:29;;;;;;;;;;;7.60;99.90;;;;;;5094704;28;19925;-52
2021/12/30 03:18:57;;;;;;;;;;;7.70;99.90;;;;;;5079241;28;19946;-52
2021/12/30 03:21:24;;;;;;;;;;;7.60;99.90;;;;;;5095475;28;19924;-52
2021/12/30 03:23:51;;;;;;;;;;;7.60;99.90;;;;;;5090809;28;19924;-52
2021/12/30 03:26:19;;;;;;;;;;;7.60;99.90;;;;;;5090781;28;20393;-52
2021/12/30 03:28:47;;;;;;;;;;;7.60;99.90;;;;;;5094428;28;19993;-52
2021/12/30 03:31:15;;;;;;;;;;;7.70;99.90;;;;;;5083200;28;19928;-52
2021/12/30 03:33:42;;;;;;;;;;;7.70;99.90;;;;;;5094318;28;20436;-52
2021/12/30 03:36:09;;;;;;;;;;;7.70;99.90;;;;;;5094440;28;19928;-52
2021/12/30 03:38:37;;;;;;;;;;;7.70;99.90;;;;;;5093312;28;19978;-52
2021/12/30 03:41:04;;;;;;;;;;;7.70;99.90;;;;;;5093652;28;19924;-52
2021/12/30 03:43:31;;;;;;;;;;;7.70;99.90;;;;;;5094242;28;20339;-52
2021/12/30 03:45:59;;;;;;;;;;;7.80;99.90;;;;;;5083997;28;20401;-52
2021/12/30 03:48:32;;;;;;;;;;;7.80;99.90;;;;;;5074831;28;19947;-52
2021/12/30 03:51:04;;;;;;;;;;;7.80;99.90;;;;;;5080715;28;20401;-52
2021/12/30 03:53:31;;;;;;;;;;;7.90;99.90;;;;;;5092047;28;20308;-52
2021/12/30 03:55:57;;;;;;;;;;;7.90;99.90;;;;;;5094041;28;20347;-52
2021/12/30 03:58:24;;;;;;;;;;;7.90;99.90;;;;;;5093076;28;19925;-52
2021/12/30 04:00:51;;;;;;;;;;;7.90;99.90;;;;;;5091395;28;19977;-52
2021/12/30 04:03:19;;;;;;;;;;;7.90;99.90;;;;;;5093398;28;20281;-52
2021/12/30 04:05:46;;;;;;;;;;;8.00;99.90;;;;;;5093693;28;19924;-52
2021/12/30 04:08:13;;;;;;;;;;;7.90;99.90;;;;;;5093799;28;19949;-52
2021/12/30 04:10:39;;;;;;;;;;;8.00;99.90;;;;;;5093493;28;20014;-52
2021/12/30 04:13:06;;;;;;;;;;;8.00;99.90;;;;;;5093513;28;19928;-52
2021/12/30 04:15:33;;;;;;;;;;;7.90;99.90;;;;;;5093101;28;19924;-52
2021/12/30 04:18:00;;;;;;;;;;;7.90;99.90;;;;;;5093789;28;19928;-52
2021/12/30 04:20:28;;;;;;;;;;;7.90;99.90;;;;;;5093649;28;19924;-52
2021/12/30 04:22:54;;;;;;;;;;;7.90;99.90;;;;;;5093903;28;20389;-52
2021/12/30 04:25:21;;;;;;;;;;;7.90;99.90;;;;;;5085334;28;19977;-52
2021/12/30 04:27:51;;;;;;;;;;;7.80;99.90;;;;;;5076280;28;19981;-52
2021/12/30 04:30:18;;;;;;;;;;;7.70;99.90;;;;;;5092648;28;19924;-52
2021/12/30 04:32:45;;;;;;;;;;;7.70;99.90;;;;;;5093703;28;19970;-52
2021/12/30 04:35:12;;;;;;;;;;;7.70;99.90;;;;;;5092863;28;19935;-52
2021/12/30 04:37:44;;;;;;;;;;;7.70;99.90;;;;;;5093550;28;19977;-52
2021/12/30 04:40:11;;;;;;;;;;;7.70;99.90;;;;;;5093033;28;19928;-52
2021/12/30 04:42:38;;;;;;;;;;;7.80;99.90;;;;;;5090811;28;19977;-52
2021/12/30 04:45:05;;;;;;;;;;;7.90;99.90;;;;;;5092338;28;19969;-52
2021/12/30 04:47:32;;;;;;;;;;;8.00;99.90;;;;;;5093470;28;19924;-52
2021/12/30 04:49:59;;;;;;;;;;;7.90;99.90;;;;;;5091902;28;19970;-52
2021/12/30 04:52:26;;;;;;;;;;;8.00;99.90;;;;;;5092334;28;19931;-52
2021/12/30 04:54:54;;;;;;;;;;;7.90;99.90;;;;;;5093281;28;19924;-52
2021/12/30 04:57:21;;;;;;;;;;;7.80;99.90;;;;;;5093360;28;19981;-52
2021/12/30 04:59:47;;;;;;;;;;;7.70;99.90;;;;;;5093696;28;19970;-52
2021/12/30 05:02:14;;;;;;;;;;;7.70;99.90;;;;;;5092878;28;19928;-52
2021/12/30 05:04:41;;;;;;;;;;;7.70;99.90;;;;;;5088963;28;19990;-52
2021/12/30 05:07:08;;;;;;;;;;;7.60;99.90;;;;;;5088723;28;20447;-52
2021/12/30 05:09:35;;;;;;;;;;;7.60;99.90;;;;;;5091310;28;19993;-52
2021/12/30 05:12:03;;;;;;;;;;;7.60;99.90;;;;;;5092920;28;19992;-52
2021/12/30 05:14:30;;;;;;;;;;;7.50;99.90;;;;;;5088745;28;19924;-52
2021/12/30 05:17:02;;;;;;;;;;;7.50;99.90;;;;;;5112223;28;19969;-51
2021/12/30 05:19:29;;;;;;;;;;;7.50;99.90;;;;;;5098797;28;20377;-52
2021/12/30 05:21:56;;;;;;;;;;;7.50;99.90;;;;;;5092219;28;19930;-52
2021/12/30 05:24:23;;;;;;;;;;;7.60;99.90;;;;;;5092838;28;19923;-52
2021/12/30 05:26:50;;;;;;;;;;;7.80;99.90;;;;;;5093216;28;19977;-52
2021/12/30 05:29:18;;;;;;;;;;;7.80;99.90;;;;;;5092863;28;19928;-52
2021/12/30 05:31:45;;;;;;;;;;;7.90;99.90;;;;;;5097461;28;19924;-52
2021/12/30 05:34:12;;;;;;;;;;;7.80;99.90;;;;;;5113287;28;19988;-52
2021/12/30 05:36:39;;;;;;;;;;;7.80;99.90;;;;;;5112934;28;19949;-51
2021/12/30 05:39:05;;;;;;;;;;;7.70;99.90;;;;;;5112619;28;19924;-52
2021/12/30 05:41:32;;;;;;;;;;;7.70;99.90;;;;;;5113017;28;19969;-52
2021/12/30 05:44:00;;;;;;;;;;;7.60;99.90;;;;;;5112743;28;19924;-51
2021/12/30 05:46:29;;;;;;;;;;;7.60;99.90;;;;;;5090998;28;19924;-52
2021/12/30 05:48:56;;;;;;;;;;;7.60;99.90;;;;;;5105876;28;19924;-52
2021/12/30 05:51:22;;;;;;;;;;;7.50;99.90;;;;;;5112687;28;19923;-51
2021/12/30 05:53:49;;;;;;;;;;;7.50;99.90;;;;;;5112673;28;19931;-52
2021/12/30 05:56:16;;;;;;;;;;;7.50;99.90;;;;;;5112612;28;19969;-52
2021/12/30 05:58:43;;;;;;;;;;;7.40;99.90;;;;;;5112625;28;19923;-52
2021/12/30 06:01:10;;;;;;;;;;;7.50;99.90;;;;;;5094543;28;19932;-51
2021/12/30 06:03:38;;;;;;;;;;;7.50;99.90;;;;;;5092129;28;19924;-52
2021/12/30 06:06:05;;;;;;;;;;;7.50;99.90;;;;;;5080901;28;19986;-52
2021/12/30 06:08:31;;;;;;;;;;;7.80;99.90;;;;;;5077907;28;19924;-51
2021/12/30 06:10:58;;;;;;;;;;;7.90;99.90;;;;;;5072137;28;19974;-52
2021/12/30 06:13:25;;;;;;;;;;;8.00;99.90;;;;;;5072055;28;19924;-51
2021/12/30 06:15:52;;;;;;;;;;;8.00;99.90;;;;;;5084178;28;20134;-52
2021/12/30 06:18:18;;;;;;;;;;;8.00;99.90;;;;;;5091512;28;20533;-51
2021/12/30 06:20:47;;;;;;;;;;;7.90;99.90;;;;;;5092293;28;19928;-52
2021/12/30 06:23:13;;;;;;;;;;;7.70;99.90;;;;;;5095981;28;19924;-52
2021/12/30 06:25:40;;;;;;;;;;;7.70;99.90;;;;;;5094755;28;19977;-51
2021/12/30 06:28:07;;;;;;;;;;;7.70;99.90;;;;;;5088583;28;19985;-51
2021/12/30 06:30:34;;;;;;;;;;;7.80;99.90;;;;;;5094949;28;19982;-51
2021/12/30 06:33:00;;;;;;;;;;;7.80;99.90;;;;;;5095719;28;19924;-51
2021/12/30 06:35:31;;;;;;;;;;;7.70;99.90;;;;;;5096073;28;19924;-51
2021/12/30 06:38:00;;;;;;;;;;;7.70;99.90;;;;;;5095737;28;19935;-52
2021/12/30 06:40:26;;;;;;;;;;;7.80;99.90;;;;;;5095662;28;19924;-51
2021/12/30 06:42:53;;;;;;;;;;;7.80;99.90;;;;;;5095717;28;19927;-51
2021/12/30 06:45:20;;;;;;;;;;;7.90;99.90;;;;;;5094009;28;19989;-51
2021/12/30 06:47:49;;;;;;;;;;;7.80;99.90;;;;;;5095558;28;20439;-52
2021/12/30 06:50:17;;;;;;;;;;;7.90;99.90;;;;;;5095371;28;19931;-52
2021/12/30 06:52:46;;;;;;;;;;;7.90;99.90;;;;;;5095433;28;19931;-52
2021/12/30 06:55:14;;;;;;;;;;;7.90;99.90;;;;;;5095563;28;19928;-52
2021/12/30 06:57:41;;;;;;;;;;;8.00;99.90;;;;;;5095336;28;20397;-51
2021/12/30 07:00:10;;;;;;;;;;;7.90;99.90;;;;;;5095227;28;19924;-51
2021/12/30 07:02:37;;;;;;;;;;;8.00;99.90;;;;;;5092645;28;19928;-52
2021/12/30 07:05:04;;;;;;;;;;;8.00;99.90;;;;;;5095374;28;19928;-52
2021/12/30 07:07:31;;;;;;;;;;;8.10;99.90;;;;;;5095316;28;19924;-52
2021/12/30 07:09:58;;;;;;;;;;;8.00;99.90;;;;;;5095016;28;19928;-52
2021/12/30 07:12:26;;;;;;;;;;;7.90;99.90;;;;;;5091669;28;19969;-52
2021/12/30 07:14:53;;;;;;;;;;;7.90;99.90;;;;;;5096387;28;19928;-52
2021/12/30 07:17:20;;;;;;;;;;;8.00;99.90;;;;;;5095020;28;19925;-51
2021/12/30 07:19:47;;;;;;;;;;;8.20;99.90;;;;;;5094672;28;20037;-52
2021/12/30 07:22:13;;;;;;;;;;;8.20;99.90;;;;;;5089141;28;19935;-52
2021/12/30 07:24:41;;;;;;;;;;;8.20;99.90;;;;;;5074992;28;19978;-52
2021/12/30 07:27:07;;;;;;;;;;;8.20;99.90;;;;;;5074687;28;19924;-52
2021/12/30 07:29:35;;;;;;;;;;;8.20;99.90;;;;;;5074690;28;19978;-52
2021/12/30 07:32:02;;;;;;;;;;;8.30;99.90;;;;;;5090078;28;19924;-52
2021/12/30 07:34:29;;;;;;;;;;;8.20;99.90;;;;;;5093642;28;19932;-52
2021/12/30 07:36:56;;;;;;;;;;;8.20;99.90;;;;;;5095829;28;19924;-52
2021/12/30 07:39:23;;;;;;;;;;;8.30;99.90;;;;;;5078017;28;19959;-52
2021/12/30 07:41:49;;;;;;;;;;;8.20;99.90;;;;;;5078479;28;19978;-52
2021/12/30 07:44:16;;;;;;;;;;;8.20;99.90;;;;;;5093909;28;19989;-52
2021/12/30 07:46:44;;;;;;;;;;;8.10;99.90;;;;;;5090208;28;19935;-52
2021/12/30 07:49:11;;;;;;;;;;;8.20;99.90;;;;;;5093913;28;19930;-52
2021/12/30 07:51:38;;;;;;;;;;;8.30;99.90;;;;;;5095988;28;19930;-52
2021/12/30 07:54:04;;;;;;;;;;;8.20;99.90;;;;;;5094148;28;19928;-52
2021/12/30 07:56:31;;;;;;;;;;;8.20;99.90;;;;;;5094261;28;20779;-52
2021/12/30 07:58:58;;;;;;;;;;;8.30;99.90;;;;;;5091250;28;19928;-52
2021/12/30 08:01:25;;;;;;;;;;;8.30;99.90;;;;;;5093619;28;19970;-52
2021/12/30 08:03:53;;;;;;;;;;;8.40;99.90;;;;;;5093725;28;20282;-52
2021/12/30 08:06:21;;;;;;;;;;;8.40;99.90;;;;;;5082297;28;19924;-52
2021/12/30 08:08:48;;;;;;;;;;;8.30;99.90;;;;;;5102645;28;20006;-52
2021/12/30 08:11:16;;;;;;;;;;;8.40;99.90;;;;;;5087214;27;19927;-52
2021/12/30 08:13:42;;;;;;;;;;;8.50;99.90;;;;;;5083387;28;19931;-52
2021/12/30 08:16:09;;;;;;;;;;;8.60;99.90;;;;;;5089985;28;19925;-52
2021/12/30 08:18:36;;;;;;;;;;;8.60;99.90;;;;;;5089163;28;19936;-52
2021/12/30 08:21:04;;;;;;;;;;;8.60;99.90;;;;;;5074875;28;19931;-51
2021/12/30 08:23:31;;;;;;;;;;;8.60;99.90;;;;;;5092580;28;19938;-52
2021/12/30 08:25:58;;;;;;;;;;;8.70;99.90;;;;;;5093483;28;19931;-52
2021/12/30 08:28:27;;;;;;;;;;;8.70;99.90;;;;;;5083320;28;19943;-51
2021/12/30 08:30:54;;;;;;;;;;;8.60;99.90;;;;;;5088729;28;20355;-53
2021/12/30 08:33:22;;;;;;;;;;;8.60;99.90;;;;;;5080970;28;19931;-51
2021/12/30 08:35:49;;;;;;;;;;;8.60;99.90;;;;;;5080970;28;19932;-51
2021/12/30 08:38:18;;;;;;;;;;;8.50;99.90;;;;;;5093475;28;19928;-51
2021/12/30 08:40:47;;;;;;;;;;;8.50;99.90;;;;;;5089032;28;19952;-52
2021/12/30 08:43:14;;;;;;;;;;;8.50;99.90;;;;;;5087898;28;20389;-52
2021/12/30 08:45:41;;;;;;;;;;;8.40;99.90;;;;;;5090066;28;19925;-52
2021/12/30 08:48:08;;;;;;;;;;;8.50;99.90;;;;;;5084854;28;19932;-52
2021/12/30 08:50:36;;;;;;;;;;;8.50;99.90;;;;;;5082555;28;19977;-51
2021/12/30 08:53:02;;;;;;;;;;;8.60;99.90;;;;;;5086384;28;19953;-51
2021/12/30 08:55:31;;;;;;;;;;;8.80;99.90;;;;;;5091219;28;19977;-51
2021/12/30 08:57:57;;;;;;;;;;;9.00;99.90;;;;;;5086309;28;19925;-51
2021/12/30 09:00:25;;;;;;;;;;;9.20;99.90;;;;;;5085457;28;19981;-51
2021/12/30 09:02:52;;;;;;;;;;;9.20;99.90;;;;;;5082781;28;20046;-52
2021/12/30 09:05:20;;;;;;;;;;;9.10;99.90;;;;;;5083531;28;20168;-52
2021/12/30 09:07:51;;;;;;;;;;;9.10;99.90;;;;;;5084581;28;20345;-51
2021/12/30 09:10:18;;;;;;;;;;;9.10;99.90;;;;;;5092215;28;19931;-52
2021/12/30 09:12:47;;;;;;;;;;;9.20;99.90;;;;;;5089931;28;19970;-51
2021/12/30 09:15:16;;;;;;;;;;;9.10;99.90;;;;;;5074052;28;19929;-52
2021/12/30 09:17:43;;;;;;;;;;;9.20;99.90;;;;;;5087821;28;19924;-52
2021/12/30 09:20:11;;;;;;;;;;;9.40;99.90;;;;;;5092622;28;19924;-52
2021/12/30 09:22:38;;;;;;;;;;;9.40;99.90;;;;;;5091532;28;20485;-51
2021/12/30 09:25:07;;;;;;;;;;;9.60;99.90;;;;;;5092500;28;19928;-52
2021/12/30 09:27:34;;;;;;;;;;;9.70;99.90;;;;;;5088399;28;19970;-52
2021/12/30 09:30:03;;;;;;;;;;;9.60;99.90;;;;;;5083831;28;19978;-51
2021/12/30 09:32:30;;;;;;;;;;;9.60;99.90;;;;;;5092566;28;20050;-52
2021/12/30 09:34:56;;;;;;;;;;;9.50;99.90;;;;;;5084103;28;19928;-52
2021/12/30 09:37:23;;;;;;;;;;;9.40;99.90;;;;;;5092392;28;19924;-52
2021/12/30 09:39:50;;;;;;;;;;;9.40;99.90;;;;;;5080413;28;19928;-51
2021/12/30 09:42:18;;;;;;;;;;;9.30;99.90;;;;;;5082591;28;19924;-52
2021/12/30 09:44:45;;;;;;;;;;;9.40;99.90;;;;;;5086783;28;19968;-52
2021/12/30 09:47:13;;;;;;;;;;;9.40;99.90;;;;;;5081165;28;19932;-51
2021/12/30 09:49:40;;;;;;;;;;;9.50;99.90;;;;;;5086938;28;19924;-52
2021/12/30 09:52:07;;;;;;;;;;;9.60;99.90;;;;;;5084235;28;19986;-52
2021/12/30 09:54:34;;;;;;;;;;;9.70;99.90;;;;;;5086120;28;19924;-52
2021/12/30 09:57:00;;;;;;;;;;;9.80;99.90;;;;;;5086206;28;19977;-51
2021/12/30 09:59:29;;;;;;;;;;;9.80;99.90;;;;;;5086055;28;20618;-52
2021/12/30 10:01:56;;;;;;;;;;;9.80;99.90;;;;;;5080449;28;19932;-51
2021/12/30 10:04:30;;;;;;;;;;;9.90;99.90;;;;;;5084639;28;19931;-51
2021/12/30 10:06:58;;;;;;;;;;;10.00;99.90;;;;;;5086711;28;19924;-51
2021/12/30 10:09:39;;;;;;;;;;;10.10;99.90;;;;;;5082505;28;20015;-52
2021/12/30 10:12:06;;;;;;;;;;;10.10;99.90;;;;;;5077477;28;20313;-52
2021/12/30 10:14:34;;;;;;;;;;;10.10;99.90;;;;;;5085519;28;19978;-51
2021/12/30 10:17:14;;;;;;;;;;;10.00;99.90;;;;;;5081543;28;19931;-51
2021/12/30 10:19:42;;;;;;;;;;;9.90;99.90;;;;;;5083928;28;19924;-51
2021/12/30 10:22:10;;;;;;;;;;;10.10;99.90;;;;;;5084274;28;20583;-52
2021/12/30 10:24:37;;;;;;;;;;;10.40;99.90;;;;;;5088743;28;19954;-52
2021/12/30 10:27:04;;;;;;;;;;;10.50;99.90;;;;;;5086242;28;19931;-52
2021/12/30 10:29:39;;;;;;;;;;;10.40;99.90;;;;;;5081323;28;20642;-52
2021/12/30 10:32:13;;;;;;;;;;;10.60;99.90;;;;;;5088078;28;19928;-52
2021/12/30 10:35:01;;;;;;;;;;;10.70;99.90;;;;;;5086724;28;19928;-52
2021/12/30 10:37:28;;;;;;;;;;;10.80;99.90;;;;;;5088514;28;19924;-51
2021/12/30 10:39:55;;;;;;;;;;;10.90;99.90;;;;;;5093269;28;19924;-52
2021/12/30 10:42:22;;;;;;;;;;;10.90;99.90;;;;;;5080721;28;19978;-51
2021/12/30 10:44:49;;;;;;;;;;;10.90;99.90;;;;;;5108786;28;20015;-51
2021/12/30 10:47:16;;;;;;;;;;;11.00;99.90;;;;;;5092169;28;19981;-51
2021/12/30 10:49:44;;;;;;;;;;;11.00;99.90;;;;;;5091433;28;19924;-51
2021/12/30 10:52:15;;;;;;;;;;;11.00;99.90;;;;;;5091482;28;19924;-51
2021/12/30 10:54:42;;;;;;;;;;;10.80;99.90;;;;;;5091363;28;20426;-51
2021/12/30 10:57:10;;;;;;;;;;;10.90;99.90;;;;;;5093814;28;19924;-52
2021/12/30 10:59:37;;;;;;;;;;;10.80;99.90;;;;;;5091308;28;20527;-51
2021/12/30 11:02:05;;;;;;;;;;;10.90;99.90;;;;;;5090980;28;19932;-51
2021/12/30 11:04:33;;;;;;;;;;;10.80;99.90;;;;;;5091453;28;19924;-51
2021/12/30 11:07:01;;;;;;;;;;;10.90;99.90;;;;;;5090925;28;19924;-51
2021/12/30 11:09:28;;;;;;;;;;;10.80;99.90;;;;;;5093315;28;19986;-51
2021/12/30 11:15:00;;;;;;;;;;;10.90;99.90;;;;;;5086656;28;19923;-51
2021/12/30 11:17:33;;;;;;;;;;;10.90;99.90;;;;;;5086199;28;19975;-51
2021/12/30 11:20:01;;;;;;;;;;;11.20;99.90;;;;;;5085907;28;19924;-51
2021/12/30 11:22:31;;;;;;;;;;;11.40;99.90;;;;;;5093311;28;19924;-51
2021/12/30 11:25:00;;;;;;;;;;;11.50;99.90;;;;;;5086354;28;20458;-51
2021/12/30 11:27:27;;;;;;;;;;;11.50;99.90;;;;;;5082991;28;19932;-51
2021/12/30 11:29:55;;;;;;;;;;;11.80;99.90;;;;;;5090477;28;19924;-51
2021/12/30 11:32:23;;;;;;;;;;;11.90;99.90;;;;;;5087330;28;19925;-51
2021/12/30 11:34:51;;;;;;;;;;;12.10;99.90;;;;;;5093234;28;19977;-51
2021/12/30 11:37:19;;;;;;;;;;;12.20;99.90;;;;;;5081161;28;19924;-51
2021/12/30 11:39:49;;;;;;;;;;;12.30;99.90;;;;;;5088116;28;19932;-51
2021/12/30 11:42:18;;;;;;;;;;;12.50;99.90;;;;;;5090680;28;19924;-51
2021/12/30 11:44:46;;;;;;;;;;;12.70;99.90;;;;;;5085879;28;19924;-51
2021/12/30 11:47:31;;;;;;;;;;;12.60;99.90;;;;;;5085243;28;19940;-52
2021/12/30 11:50:01;;;;;;;;;;;12.80;99.90;;;;;;5089101;28;20435;-51
2021/12/30 11:52:48;;;;;;;;;;;12.70;99.90;;;;;;5085162;28;20410;-51
2021/12/30 11:55:34;;;;;;;;;;;12.80;99.90;;;;;;5080618;28;19928;-52
2021/12/30 11:58:15;;;;;;;;;;;13.00;99.90;;;;;;5085221;28;19924;-51
2021/12/30 12:00:43;;;;;;;;;;;12.90;99.90;;;;;;5087119;28;20378;-51
2021/12/30 12:03:25;;;;;;;;;;;13.00;99.90;;;;;;5084183;28;19977;-51
2021/12/30 12:05:53;;;;;;;;;;;13.10;99.90;;;;;;5086135;28;20447;-51
2021/12/30 12:08:19;;;;;;;;;;;12.80;99.90;;;;;;5084743;28;20021;-52
2021/12/30 12:11:07;;;;;;;;;;;12.60;99.90;;;;;;5091602;28;19937;-51
2021/12/30 12:13:34;;;;;;;;;;;12.60;99.90;;;;;;5092905;28;19924;-52
2021/12/30 12:16:02;;;;;;;;;;;12.80;99.90;;;;;;5091192;28;20293;-52
2021/12/30 12:18:30;;;;;;;;;;;13.00;99.90;;;;;;5092696;28;19935;-52
2021/12/30 12:20:58;;;;;;;;;;;12.90;99.90;;;;;;5091485;28;19928;-52
2021/12/30 12:23:32;;;;;;;;;;;12.90;99.90;;;;;;5091730;28;20072;-52
2021/12/30 12:26:09;;;;;;;;;;;13.00;99.90;;;;;;5084799;28;19932;-52
2021/12/30 12:28:35;;;;;;;;;;;12.90;99.90;;;;;;5088681;28;19931;-52
2021/12/30 12:31:06;;;;;;;;;;;12.60;99.90;;;;;;5085989;28;19970;-52
2021/12/30 12:33:33;;;;;;;;;;;12.60;99.90;;;;;;5088865;28;20027;-52
2021/12/30 12:36:01;;;;;;;;;;;12.70;99.90;;;;;;5086845;28;20355;-52
2021/12/30 12:38:37;;;;;;;;;;;12.80;99.90;;;;;;5089116;28;19973;-52
2021/12/30 12:41:16;;;;;;;;;;;13.00;99.90;;;;;;5089971;28;20393;-51
2021/12/30 12:43:43;;;;;;;;;;;13.10;99.90;;;;;;5087738;28;19924;-52
2021/12/30 12:46:11;;;;;;;;;;;13.20;99.90;;;;;;5086779;28;19928;-51
2021/12/30 12:48:40;;;;;;;;;;;13.30;99.90;;;;;;5088609;28;19985;-52
2021/12/30 12:51:09;;;;;;;;;;;13.40;99.90;;;;;;5090620;28;20401;-52
2021/12/30 12:53:41;;;;;;;;;;;13.20;99.90;;;;;;5091888;28;19932;-51
2021/12/30 12:56:09;;;;;;;;;;;13.10;99.90;;;;;;5084904;28;20348;-51
2021/12/30 12:58:36;;;;;;;;;;;13.10;99.90;;;;;;5091254;28;20446;-51
2021/12/30 13:01:03;;;;;;;;;;;12.90;99.90;;;;;;5091277;28;19924;-51
2021/12/30 13:03:32;;;;;;;;;;;12.90;99.90;;;;;;5089844;28;19978;-51
2021/12/30 13:06:00;;;;;;;;;;;13.00;99.90;;;;;;5081083;28;19932;-50
2021/12/30 13:08:27;;;;;;;;;;;12.90;99.90;;;;;;5091609;28;19935;-51
2021/12/30 13:10:54;;;;;;;;;;;12.60;99.90;;;;;;5091289;28;20282;-51
2021/12/30 13:13:28;;;;;;;;;;;12.50;99.90;;;;;;5091862;28;19969;-51
2021/12/30 13:15:55;;;;;;;;;;;12.60;99.90;;;;;;5078592;28;19928;-53
2021/12/30 13:18:22;;;;;;;;;;;12.30;99.90;;;;;;5091902;28;19924;-53
2021/12/30 13:20:50;;;;;;;;;;;12.20;99.90;;;;;;5089201;28;19993;-53
2021/12/30 13:23:30;;;;;;;;;;;12.20;99.90;;;;;;5085241;28;19928;-53
2021/12/30 13:25:59;;;;;;;;;;;12.20;99.90;;;;;;5085063;28;19928;-52
2021/12/30 13:28:25;;;;;;;;;;;12.20;99.90;;;;;;5086027;28;20066;-50
2021/12/30 13:30:52;;;;;;;;;;;12.00;99.90;;;;;;5083364;28;19924;-50
2021/12/30 13:33:19;;;;;;;;;;;11.90;99.90;;;;;;5085625;28;19928;-50
2021/12/30 13:35:46;;;;;;;;;;;12.00;99.90;;;;;;5082453;28;20611;-51
2021/12/30 13:38:14;;;;;;;;;;;11.90;99.90;;;;;;5082931;28;19928;-51
2021/12/30 13:40:42;;;;;;;;;;;11.90;99.90;;;;;;5083284;28;19932;-50
2021/12/30 13:43:11;;;;;;;;;;;11.90;99.90;;;;;;5085108;28;19924;-50
2021/12/30 13:45:38;;;;;;;;;;;12.00;99.90;;;;;;5082651;28;20674;-50
2021/12/30 13:48:06;;;;;;;;;;;12.20;99.90;;;;;;5083540;28;19981;-50
2021/12/30 13:50:33;;;;;;;;;;;12.00;99.90;;;;;;5085076;28;19924;-50
2021/12/30 13:53:01;;;;;;;;;;;12.10;99.90;;;;;;5084443;28;20352;-51
2021/12/30 13:55:30;;;;;;;;;;;12.20;99.90;;;;;;5086580;28;19924;-52
2021/12/30 13:57:59;;;;;;;;;;;12.30;99.90;;;;;;5082642;28;19928;-51
2021/12/30 14:00:26;;;;;;;;;;;12.30;99.90;;;;;;5087441;28;19978;-52
2021/12/30 14:03:00;;;;;;;;;;;12.20;99.90;;;;;;5083160;28;19977;-52
2021/12/30 14:05:26;;;;;;;;;;;12.30;99.90;;;;;;5089876;28;19924;-52
2021/12/30 14:07:53;;;;;;;;;;;12.20;99.90;;;;;;5075447;28;20282;-52
2021/12/30 14:10:20;;;;;;;;;;;12.20;99.90;;;;;;5085318;28;20045;-52
2021/12/30 14:12:59;;;;;;;;;;;12.30;99.90;;;;;;5083340;28;20739;-52
2021/12/30 14:15:26;;;;;;;;;;;12.30;99.90;;;;;;5083990;28;20347;-52
2021/12/30 14:17:59;;;;;;;;;;;12.40;99.90;;;;;;5078123;28;19981;-52
2021/12/30 14:20:26;;;;;;;;;;;12.40;99.90;;;;;;5082697;28;19928;-51
2021/12/30 14:22:55;;;;;;;;;;;12.30;99.90;;;;;;5082390;28;20037;-52
2021/12/30 14:25:39;;;;;;;;;;;12.10;99.90;;;;;;5085384;28;20347;-52
2021/12/30 14:28:19;;;;;;;;;;;12.10;99.90;;;;;;5082711;28;19936;-52
2021/12/30 14:30:46;;;;;;;;;;;12.00;99.90;;;;;;5083917;28;19936;-52
2021/12/30 14:33:15;;;;;;;;;;;12.00;99.90;;;;;;5083088;28;19928;-51
2021/12/30 14:35:41;;;;;;;;;;;11.90;99.90;;;;;;5083537;28;19928;-52